sensor_id;sensor_type;location;lat;lon;timestamp;P1;durP1;ratioP1;P2;durP2;ratioP2
215;SDS011;70668;48.81286795;9.14184224;2023-07-29T00:00:11;6.10;;;3.50;;
215;SDS011;70668;48.81286795;9.14184224;2023-07-29T00:02:40;7.77;;;3.10;;
215;SDS011;70668;48.81286795;9.14184224;2023-07-29T00:05:12;9.00;;;3.30;;
215;SDS011;70668;48.81286795;9.14184224;2023-07-29T00:07:40;7.23;;;3.17;;
215;SDS011;70668;48.81286795;9.14184224;2023-07-29T00:10:09;7.40;;;3.10;;
215;SDS011;70668;48.81286795;9.14184224;2023-07-29T00:12:37;10.20;;;3.30;;
215;SDS011;70668;48.81286795;9.14184224;2023-07-29T00:15:06;9.70;;;3.00;;
215;SDS011;70668;48.81286795;9.14184224;2023-07-29T00:17:35;4.20;;;2.90;;
215;SDS011;70668;48.81286795;9.14184224;2023-07-29T00:20:04;6.13;;;2.83;;
215;SDS011;70668;48.81286795;9.14184224;2023-07-29T00:22:36;5.00;;;3.17;;
215;SDS011;70668;48.81286795;9.14184224;2023-07-29T00:25:05;5.43;;;2.83;;
215;SDS011;70668;48.81286795;9.14184224;2023-07-29T00:27:34;5.93;;;2.90;;
215;SDS011;70668;48.81286795;9.14184224;2023-07-29T00:30:03;7.00;;;3.30;;
215;SDS011;70668;48.81286795;9.14184224;2023-07-29T00:32:32;6.13;;;3.10;;
215;SDS011;70668;48.81286795;9.14184224;2023-07-29T00:35:00;6.37;;;2.97;;
215;SDS011;70668;48.81286795;9.14184224;2023-07-29T00:37:30;9.00;;;3.30;;
215;SDS011;70668;48.81286795;9.14184224;2023-07-29T00:40:01;8.93;;;3.23;;
215;SDS011;70668;48.81286795;9.14184224;2023-07-29T00:42:30;5.60;;;3.17;;
215;SDS011;70668;48.81286795;9.14184224;2023-07-29T00:44:58;5.53;;;3.23;;
215;SDS011;70668;48.81286795;9.14184224;2023-07-29T00:47:27;4.03;;;3.03;;
215;SDS011;70668;48.81286795;9.14184224;2023-07-29T00:49:55;6.50;;;3.50;;
215;SDS011;70668;48.81286795;9.14184224;2023-07-29T00:52:24;6.40;;;3.27;;
215;SDS011;70668;48.81286795;9.14184224;2023-07-29T00:54:53;5.57;;;3.40;;
215;SDS011;70668;48.81286795;9.14184224;2023-07-29T00:57:24;8.77;;;2.87;;
215;SDS011;70668;48.81286795;9.14184224;2023-07-29T00:59:53;6.90;;;3.37;;
215;SDS011;70668;48.81286795;9.14184224;2023-07-29T01:02:22;6.30;;;3.50;;
215;SDS011;70668;48.81286795;9.14184224;2023-07-29T01:04:52;4.23;;;2.53;;
215;SDS011;70668;48.81286795;9.14184224;2023-07-29T01:07:21;5.13;;;3.20;;
215;SDS011;70668;48.81286795;9.14184224;2023-07-29T01:09:55;4.97;;;2.67;;
215;SDS011;70668;48.81286795;9.14184224;2023-07-29T01:12:33;8.70;;;2.80;;
215;SDS011;70668;48.81286795;9.14184224;2023-07-29T01:15:09;7.50;;;2.67;;
215;SDS011;70668;48.81286795;9.14184224;2023-07-29T01:17:40;4.77;;;2.80;;
215;SDS011;70668;48.81286795;9.14184224;2023-07-29T01:20:11;5.63;;;2.80;;
215;SDS011;70668;48.81286795;9.14184224;2023-07-29T01:22:42;5.90;;;3.10;;
215;SDS011;70668;48.81286795;9.14184224;2023-07-29T01:25:13;4.27;;;2.70;;
215;SDS011;70668;48.81286795;9.14184224;2023-07-29T01:27:43;5.17;;;3.20;;
215;SDS011;70668;48.81286795;9.14184224;2023-07-29T01:30:13;4.23;;;3.20;;
215;SDS011;70668;48.81286795;9.14184224;2023-07-29T01:32:43;6.70;;;4.07;;
215;SDS011;70668;48.81286795;9.14184224;2023-07-29T01:35:17;5.10;;;3.40;;
215;SDS011;70668;48.81286795;9.14184224;2023-07-29T01:37:51;11.43;;;3.70;;
215;SDS011;70668;48.81286795;9.14184224;2023-07-29T01:40:23;5.93;;;3.80;;
215;SDS011;70668;48.81286795;9.14184224;2023-07-29T01:42:58;6.67;;;3.43;;
215;SDS011;70668;48.81286795;9.14184224;2023-07-29T01:45:28;4.80;;;3.60;;
215;SDS011;70668;48.81286795;9.14184224;2023-07-29T01:47:57;5.70;;;3.40;;
215;SDS011;70668;48.81286795;9.14184224;2023-07-29T01:50:25;6.50;;;3.50;;
215;SDS011;70668;48.81286795;9.14184224;2023-07-29T01:52:53;5.27;;;3.20;;
215;SDS011;70668;48.81286795;9.14184224;2023-07-29T01:55:24;5.30;;;3.13;;
215;SDS011;70668;48.81286795;9.14184224;2023-07-29T01:57:53;6.47;;;3.30;;
215;SDS011;70668;48.81286795;9.14184224;2023-07-29T02:00:23;6.10;;;3.40;;
215;SDS011;70668;48.81286795;9.14184224;2023-07-29T02:02:51;5.87;;;3.10;;
215;SDS011;70668;48.81286795;9.14184224;2023-07-29T02:05:20;4.70;;;2.90;;
215;SDS011;70668;48.81286795;9.14184224;2023-07-29T02:07:48;6.63;;;3.03;;
215;SDS011;70668;48.81286795;9.14184224;2023-07-29T02:10:17;5.40;;;3.30;;
215;SDS011;70668;48.81286795;9.14184224;2023-07-29T02:12:48;4.83;;;3.60;;
215;SDS011;70668;48.81286795;9.14184224;2023-07-29T02:15:16;6.60;;;3.10;;
215;SDS011;70668;48.81286795;9.14184224;2023-07-29T02:17:45;7.17;;;3.03;;
215;SDS011;70668;48.81286795;9.14184224;2023-07-29T02:20:14;7.60;;;3.10;;
215;SDS011;70668;48.81286795;9.14184224;2023-07-29T02:22:42;6.53;;;3.43;;
215;SDS011;70668;48.81286795;9.14184224;2023-07-29T02:25:11;5.93;;;3.50;;
215;SDS011;70668;48.81286795;9.14184224;2023-07-29T02:27:39;5.33;;;3.10;;
215;SDS011;70668;48.81286795;9.14184224;2023-07-29T02:30:10;7.00;;;3.50;;
215;SDS011;70668;48.81286795;9.14184224;2023-07-29T02:32:39;6.00;;;3.23;;
215;SDS011;70668;48.81286795;9.14184224;2023-07-29T02:35:08;8.70;;;3.50;;
215;SDS011;70668;48.81286795;9.14184224;2023-07-29T02:37:36;7.43;;;3.20;;
215;SDS011;70668;48.81286795;9.14184224;2023-07-29T02:40:05;7.00;;;3.50;;
215;SDS011;70668;48.81286795;9.14184224;2023-07-29T02:42:34;6.23;;;3.63;;
215;SDS011;70668;48.81286795;9.14184224;2023-07-29T02:45:04;8.50;;;3.43;;
215;SDS011;70668;48.81286795;9.14184224;2023-07-29T02:47:37;8.13;;;3.47;;
215;SDS011;70668;48.81286795;9.14184224;2023-07-29T02:50:06;5.30;;;3.20;;
215;SDS011;70668;48.81286795;9.14184224;2023-07-29T02:52:35;6.13;;;3.50;;
215;SDS011;70668;48.81286795;9.14184224;2023-07-29T02:55:04;6.80;;;3.40;;
215;SDS011;70668;48.81286795;9.14184224;2023-07-29T02:57:33;4.40;;;3.10;;
215;SDS011;70668;48.81286795;9.14184224;2023-07-29T03:00:02;11.00;;;3.50;;
215;SDS011;70668;48.81286795;9.14184224;2023-07-29T03:02:33;5.27;;;3.40;;
215;SDS011;70668;48.81286795;9.14184224;2023-07-29T03:05:04;9.53;;;3.43;;
215;SDS011;70668;48.81286795;9.14184224;2023-07-29T03:07:33;9.77;;;3.30;;
215;SDS011;70668;48.81286795;9.14184224;2023-07-29T03:10:02;4.93;;;3.27;;
215;SDS011;70668;48.81286795;9.14184224;2023-07-29T03:12:31;5.60;;;3.23;;
215;SDS011;70668;48.81286795;9.14184224;2023-07-29T03:15:00;8.87;;;3.60;;
215;SDS011;70668;48.81286795;9.14184224;2023-07-29T03:17:29;5.13;;;3.30;;
215;SDS011;70668;48.81286795;9.14184224;2023-07-29T03:19:57;13.23;;;3.77;;
215;SDS011;70668;48.81286795;9.14184224;2023-07-29T03:22:28;5.93;;;3.50;;
215;SDS011;70668;48.81286795;9.14184224;2023-07-29T03:24:56;8.87;;;3.40;;
215;SDS011;70668;48.81286795;9.14184224;2023-07-29T03:27:25;5.53;;;2.97;;
215;SDS011;70668;48.81286795;9.14184224;2023-07-29T03:29:53;6.63;;;3.50;;
215;SDS011;70668;48.81286795;9.14184224;2023-07-29T03:32:22;11.17;;;3.47;;
215;SDS011;70668;48.81286795;9.14184224;2023-07-29T03:34:50;5.77;;;3.37;;
215;SDS011;70668;48.81286795;9.14184224;2023-07-29T03:37:19;9.37;;;3.60;;
215;SDS011;70668;48.81286795;9.14184224;2023-07-29T03:39:50;6.57;;;3.10;;
215;SDS011;70668;48.81286795;9.14184224;2023-07-29T03:42:19;6.60;;;3.40;;
215;SDS011;70668;48.81286795;9.14184224;2023-07-29T03:44:47;6.53;;;3.80;;
215;SDS011;70668;48.81286795;9.14184224;2023-07-29T03:47:16;7.37;;;3.10;;
215;SDS011;70668;48.81286795;9.14184224;2023-07-29T03:49:44;4.70;;;3.40;;
215;SDS011;70668;48.81286795;9.14184224;2023-07-29T03:52:15;5.63;;;3.30;;
215;SDS011;70668;48.81286795;9.14184224;2023-07-29T03:54:43;5.40;;;3.60;;
215;SDS011;70668;48.81286795;9.14184224;2023-07-29T03:57:14;14.37;;;3.97;;
215;SDS011;70668;48.81286795;9.14184224;2023-07-29T03:59:43;8.83;;;4.30;;
215;SDS011;70668;48.81286795;9.14184224;2023-07-29T04:02:11;14.70;;;3.87;;
215;SDS011;70668;48.81286795;9.14184224;2023-07-29T04:04:40;10.70;;;4.20;;
215;SDS011;70668;48.81286795;9.14184224;2023-07-29T04:07:12;7.53;;;3.63;;
215;SDS011;70668;48.81286795;9.14184224;2023-07-29T04:09:41;7.90;;;4.00;;
215;SDS011;70668;48.81286795;9.14184224;2023-07-29T04:12:10;9.60;;;3.93;;
215;SDS011;70668;48.81286795;9.14184224;2023-07-29T04:14:41;6.80;;;3.67;;
215;SDS011;70668;48.81286795;9.14184224;2023-07-29T04:17:10;8.10;;;3.50;;
215;SDS011;70668;48.81286795;9.14184224;2023-07-29T04:19:38;4.30;;;3.27;;
215;SDS011;70668;48.81286795;9.14184224;2023-07-29T04:22:06;7.80;;;3.60;;
215;SDS011;70668;48.81286795;9.14184224;2023-07-29T04:24:35;7.10;;;3.80;;
215;SDS011;70668;48.81286795;9.14184224;2023-07-29T04:27:03;5.30;;;3.67;;
215;SDS011;70668;48.81286795;9.14184224;2023-07-29T04:29:32;5.73;;;3.60;;
215;SDS011;70668;48.81286795;9.14184224;2023-07-29T04:32:04;7.83;;;3.63;;
215;SDS011;70668;48.81286795;9.14184224;2023-07-29T04:34:33;7.97;;;3.77;;
215;SDS011;70668;48.81286795;9.14184224;2023-07-29T04:37:02;5.67;;;3.50;;
215;SDS011;70668;48.81286795;9.14184224;2023-07-29T04:39:30;7.80;;;4.13;;
215;SDS011;70668;48.81286795;9.14184224;2023-07-29T04:41:59;6.50;;;3.50;;
215;SDS011;70668;48.81286795;9.14184224;2023-07-29T04:44:27;7.47;;;3.60;;
215;SDS011;70668;48.81286795;9.14184224;2023-07-29T04:46:55;5.70;;;3.50;;
215;SDS011;70668;48.81286795;9.14184224;2023-07-29T04:49:26;7.97;;;4.07;;
215;SDS011;70668;48.81286795;9.14184224;2023-07-29T04:51:55;7.97;;;4.40;;
215;SDS011;70668;48.81286795;9.14184224;2023-07-29T04:54:23;9.77;;;4.13;;
215;SDS011;70668;48.81286795;9.14184224;2023-07-29T04:56:52;10.13;;;4.13;;
215;SDS011;70668;48.81286795;9.14184224;2023-07-29T04:59:17;12.50;;;4.93;;
215;SDS011;70668;48.81286795;9.14184224;2023-07-29T05:01:46;7.40;;;4.50;;
215;SDS011;70668;48.81286795;9.14184224;2023-07-29T05:04:15;11.47;;;5.00;;
215;SDS011;70668;48.81286795;9.14184224;2023-07-29T05:06:46;10.80;;;4.80;;
215;SDS011;70668;48.81286795;9.14184224;2023-07-29T05:09:16;12.47;;;4.57;;
215;SDS011;70668;48.81286795;9.14184224;2023-07-29T05:11:45;9.57;;;5.07;;
215;SDS011;70668;48.81286795;9.14184224;2023-07-29T05:14:14;13.27;;;5.00;;
215;SDS011;70668;48.81286795;9.14184224;2023-07-29T05:16:44;8.00;;;4.80;;
215;SDS011;70668;48.81286795;9.14184224;2023-07-29T05:19:13;6.00;;;4.20;;
215;SDS011;70668;48.81286795;9.14184224;2023-07-29T05:21:41;9.50;;;4.93;;
215;SDS011;70668;48.81286795;9.14184224;2023-07-29T05:24:12;7.90;;;4.70;;
215;SDS011;70668;48.81286795;9.14184224;2023-07-29T05:26:41;6.30;;;4.27;;
215;SDS011;70668;48.81286795;9.14184224;2023-07-29T05:29:09;9.37;;;5.13;;
215;SDS011;70668;48.81286795;9.14184224;2023-07-29T05:31:38;7.70;;;4.50;;
215;SDS011;70668;48.81286795;9.14184224;2023-07-29T05:34:06;12.73;;;4.50;;
215;SDS011;70668;48.81286795;9.14184224;2023-07-29T05:36:35;10.67;;;4.90;;
215;SDS011;70668;48.81286795;9.14184224;2023-07-29T05:39:04;11.40;;;5.33;;
215;SDS011;70668;48.81286795;9.14184224;2023-07-29T05:41:35;7.13;;;4.67;;
215;SDS011;70668;48.81286795;9.14184224;2023-07-29T05:44:04;9.00;;;4.20;;
215;SDS011;70668;48.81286795;9.14184224;2023-07-29T05:46:32;7.10;;;4.23;;
215;SDS011;70668;48.81286795;9.14184224;2023-07-29T05:49:01;9.37;;;4.50;;
215;SDS011;70668;48.81286795;9.14184224;2023-07-29T05:51:29;7.03;;;3.70;;
215;SDS011;70668;48.81286795;9.14184224;2023-07-29T05:53:57;7.47;;;4.10;;
215;SDS011;70668;48.81286795;9.14184224;2023-07-29T05:56:26;7.73;;;4.30;;
215;SDS011;70668;48.81286795;9.14184224;2023-07-29T05:58:57;6.40;;;3.70;;
215;SDS011;70668;48.81286795;9.14184224;2023-07-29T06:01:26;6.73;;;3.90;;
215;SDS011;70668;48.81286795;9.14184224;2023-07-29T06:03:54;8.17;;;3.93;;
215;SDS011;70668;48.81286795;9.14184224;2023-07-29T06:06:22;6.87;;;4.20;;
215;SDS011;70668;48.81286795;9.14184224;2023-07-29T06:08:51;6.80;;;4.27;;
215;SDS011;70668;48.81286795;9.14184224;2023-07-29T06:11:19;7.37;;;4.10;;
215;SDS011;70668;48.81286795;9.14184224;2023-07-29T06:13:48;6.47;;;4.00;;
215;SDS011;70668;48.81286795;9.14184224;2023-07-29T06:16:19;10.70;;;4.50;;
215;SDS011;70668;48.81286795;9.14184224;2023-07-29T06:18:47;7.83;;;4.47;;
215;SDS011;70668;48.81286795;9.14184224;2023-07-29T06:21:18;9.40;;;4.93;;
215;SDS011;70668;48.81286795;9.14184224;2023-07-29T06:23:47;11.30;;;5.00;;
215;SDS011;70668;48.81286795;9.14184224;2023-07-29T06:26:16;9.83;;;5.47;;
215;SDS011;70668;48.81286795;9.14184224;2023-07-29T06:28:44;9.77;;;4.90;;
215;SDS011;70668;48.81286795;9.14184224;2023-07-29T06:31:12;9.30;;;5.40;;
215;SDS011;70668;48.81286795;9.14184224;2023-07-29T06:33:43;8.73;;;4.50;;
215;SDS011;70668;48.81286795;9.14184224;2023-07-29T06:36:12;9.70;;;5.00;;
215;SDS011;70668;48.81286795;9.14184224;2023-07-29T06:38:40;10.63;;;5.27;;
215;SDS011;70668;48.81286795;9.14184224;2023-07-29T06:41:08;9.03;;;4.60;;
215;SDS011;70668;48.81286795;9.14184224;2023-07-29T06:43:37;6.87;;;4.50;;
215;SDS011;70668;48.81286795;9.14184224;2023-07-29T06:46:06;7.10;;;4.30;;
215;SDS011;70668;48.81286795;9.14184224;2023-07-29T06:48:34;6.63;;;4.30;;
215;SDS011;70668;48.81286795;9.14184224;2023-07-29T06:51:05;8.10;;;4.40;;
215;SDS011;70668;48.81286795;9.14184224;2023-07-29T06:53:33;6.40;;;4.40;;
215;SDS011;70668;48.81286795;9.14184224;2023-07-29T06:56:02;5.50;;;3.90;;
215;SDS011;70668;48.81286795;9.14184224;2023-07-29T06:58:30;7.87;;;3.50;;
215;SDS011;70668;48.81286795;9.14184224;2023-07-29T07:00:59;4.27;;;2.97;;
215;SDS011;70668;48.81286795;9.14184224;2023-07-29T07:03:28;4.60;;;3.23;;
215;SDS011;70668;48.81286795;9.14184224;2023-07-29T07:05:57;5.97;;;3.27;;
215;SDS011;70668;48.81286795;9.14184224;2023-07-29T07:08:28;6.27;;;3.10;;
215;SDS011;70668;48.81286795;9.14184224;2023-07-29T07:10:56;12.07;;;4.03;;
215;SDS011;70668;48.81286795;9.14184224;2023-07-29T07:13:24;5.80;;;3.10;;
215;SDS011;70668;48.81286795;9.14184224;2023-07-29T07:15:53;5.80;;;3.40;;
215;SDS011;70668;48.81286795;9.14184224;2023-07-29T07:18:22;5.47;;;3.30;;
215;SDS011;70668;48.81286795;9.14184224;2023-07-29T07:20:51;5.93;;;3.43;;
215;SDS011;70668;48.81286795;9.14184224;2023-07-29T07:23:19;5.60;;;3.10;;
215;SDS011;70668;48.81286795;9.14184224;2023-07-29T07:25:50;5.60;;;3.47;;
215;SDS011;70668;48.81286795;9.14184224;2023-07-29T07:28:19;7.17;;;3.60;;
215;SDS011;70668;48.81286795;9.14184224;2023-07-29T07:30:47;4.83;;;3.37;;
215;SDS011;70668;48.81286795;9.14184224;2023-07-29T07:33:15;4.23;;;3.10;;
215;SDS011;70668;48.81286795;9.14184224;2023-07-29T07:35:44;6.20;;;3.20;;
215;SDS011;70668;48.81286795;9.14184224;2023-07-29T07:38:12;9.10;;;3.10;;
215;SDS011;70668;48.81286795;9.14184224;2023-07-29T07:40:40;6.57;;;3.20;;
215;SDS011;70668;48.81286795;9.14184224;2023-07-29T07:43:11;4.30;;;2.73;;
215;SDS011;70668;48.81286795;9.14184224;2023-07-29T07:45:40;5.13;;;2.80;;
215;SDS011;70668;48.81286795;9.14184224;2023-07-29T07:48:08;3.60;;;2.50;;
215;SDS011;70668;48.81286795;9.14184224;2023-07-29T07:50:38;6.73;;;2.90;;
215;SDS011;70668;48.81286795;9.14184224;2023-07-29T07:53:06;7.53;;;2.50;;
215;SDS011;70668;48.81286795;9.14184224;2023-07-29T07:55:35;5.37;;;2.80;;
215;SDS011;70668;48.81286795;9.14184224;2023-07-29T07:58:03;4.80;;;2.87;;
215;SDS011;70668;48.81286795;9.14184224;2023-07-29T08:00:34;6.15;;;2.70;;
215;SDS011;70668;48.81286795;9.14184224;2023-07-29T08:03:03;4.87;;;2.60;;
215;SDS011;70668;48.81286795;9.14184224;2023-07-29T08:05:31;4.80;;;2.97;;
215;SDS011;70668;48.81286795;9.14184224;2023-07-29T08:08:00;5.63;;;2.70;;
215;SDS011;70668;48.81286795;9.14184224;2023-07-29T08:10:28;7.63;;;2.57;;
215;SDS011;70668;48.81286795;9.14184224;2023-07-29T08:12:56;6.30;;;2.80;;
215;SDS011;70668;48.81286795;9.14184224;2023-07-29T08:15:25;10.80;;;2.60;;
215;SDS011;70668;48.81286795;9.14184224;2023-07-29T08:17:56;3.77;;;2.40;;
215;SDS011;70668;48.81286795;9.14184224;2023-07-29T08:20:24;3.33;;;2.23;;
215;SDS011;70668;48.81286795;9.14184224;2023-07-29T08:22:52;6.03;;;2.63;;
215;SDS011;70668;48.81286795;9.14184224;2023-07-29T08:25:21;5.53;;;2.60;;
215;SDS011;70668;48.81286795;9.14184224;2023-07-29T08:27:49;4.43;;;2.40;;
215;SDS011;70668;48.81286795;9.14184224;2023-07-29T08:30:18;3.70;;;2.60;;
215;SDS011;70668;48.81286795;9.14184224;2023-07-29T08:32:46;3.70;;;2.30;;
215;SDS011;70668;48.81286795;9.14184224;2023-07-29T08:35:18;4.77;;;2.50;;
215;SDS011;70668;48.81286795;9.14184224;2023-07-29T08:37:46;4.10;;;2.20;;
215;SDS011;70668;48.81286795;9.14184224;2023-07-29T08:40:14;3.83;;;2.40;;
215;SDS011;70668;48.81286795;9.14184224;2023-07-29T08:42:43;3.87;;;2.70;;
215;SDS011;70668;48.81286795;9.14184224;2023-07-29T08:45:13;3.70;;;2.40;;
215;SDS011;70668;48.81286795;9.14184224;2023-07-29T08:47:42;4.17;;;2.60;;
215;SDS011;70668;48.81286795;9.14184224;2023-07-29T08:50:10;5.10;;;2.43;;
215;SDS011;70668;48.81286795;9.14184224;2023-07-29T08:52:41;5.50;;;2.30;;
215;SDS011;70668;48.81286795;9.14184224;2023-07-29T08:55:10;4.80;;;2.50;;
215;SDS011;70668;48.81286795;9.14184224;2023-07-29T08:57:39;4.40;;;2.67;;
215;SDS011;70668;48.81286795;9.14184224;2023-07-29T09:00:08;6.00;;;2.30;;
215;SDS011;70668;48.81286795;9.14184224;2023-07-29T09:02:37;3.83;;;2.27;;
215;SDS011;70668;48.81286795;9.14184224;2023-07-29T09:05:06;3.63;;;2.43;;
215;SDS011;70668;48.81286795;9.14184224;2023-07-29T09:07:35;5.03;;;2.50;;
215;SDS011;70668;48.81286795;9.14184224;2023-07-29T09:10:08;6.23;;;2.20;;
215;SDS011;70668;48.81286795;9.14184224;2023-07-29T09:12:37;4.40;;;2.40;;
215;SDS011;70668;48.81286795;9.14184224;2023-07-29T09:15:06;4.33;;;2.57;;
215;SDS011;70668;48.81286795;9.14184224;2023-07-29T09:17:35;4.40;;;2.30;;
215;SDS011;70668;48.81286795;9.14184224;2023-07-29T09:20:04;4.17;;;2.37;;
215;SDS011;70668;48.81286795;9.14184224;2023-07-29T09:22:33;5.40;;;2.60;;
215;SDS011;70668;48.81286795;9.14184224;2023-07-29T09:25:02;5.10;;;2.50;;
215;SDS011;70668;48.81286795;9.14184224;2023-07-29T09:27:33;4.60;;;2.50;;
215;SDS011;70668;48.81286795;9.14184224;2023-07-29T09:30:05;5.20;;;2.53;;
215;SDS011;70668;48.81286795;9.14184224;2023-07-29T09:32:52;7.07;;;2.77;;
215;SDS011;70668;48.81286795;9.14184224;2023-07-29T09:35:22;6.53;;;2.60;;
215;SDS011;70668;48.81286795;9.14184224;2023-07-29T09:37:51;4.10;;;2.43;;
215;SDS011;70668;48.81286795;9.14184224;2023-07-29T09:40:19;4.73;;;2.77;;
215;SDS011;70668;48.81286795;9.14184224;2023-07-29T09:42:50;4.17;;;2.57;;
215;SDS011;70668;48.81286795;9.14184224;2023-07-29T09:45:20;4.90;;;2.60;;
215;SDS011;70668;48.81286795;9.14184224;2023-07-29T09:47:49;6.43;;;2.80;;
215;SDS011;70668;48.81286795;9.14184224;2023-07-29T09:50:18;4.37;;;2.83;;
215;SDS011;70668;48.81286795;9.14184224;2023-07-29T09:52:47;3.80;;;2.53;;
215;SDS011;70668;48.81286795;9.14184224;2023-07-29T09:55:16;4.13;;;2.53;;
215;SDS011;70668;48.81286795;9.14184224;2023-07-29T09:57:46;4.87;;;2.80;;
215;SDS011;70668;48.81286795;9.14184224;2023-07-29T10:00:17;5.57;;;2.90;;
215;SDS011;70668;48.81286795;9.14184224;2023-07-29T10:02:46;4.23;;;2.77;;
215;SDS011;70668;48.81286795;9.14184224;2023-07-29T10:05:15;3.87;;;2.70;;
215;SDS011;70668;48.81286795;9.14184224;2023-07-29T10:07:43;6.20;;;2.63;;
215;SDS011;70668;48.81286795;9.14184224;2023-07-29T10:10:12;3.60;;;2.40;;
215;SDS011;70668;48.81286795;9.14184224;2023-07-29T10:12:41;4.23;;;2.77;;
215;SDS011;70668;48.81286795;9.14184224;2023-07-29T10:15:10;3.80;;;2.60;;
215;SDS011;70668;48.81286795;9.14184224;2023-07-29T10:17:41;5.13;;;3.13;;
215;SDS011;70668;48.81286795;9.14184224;2023-07-29T10:20:10;5.47;;;2.70;;
215;SDS011;70668;48.81286795;9.14184224;2023-07-29T10:22:41;6.43;;;2.70;;
215;SDS011;70668;48.81286795;9.14184224;2023-07-29T10:25:11;3.37;;;2.33;;
215;SDS011;70668;48.81286795;9.14184224;2023-07-29T10:27:47;4.00;;;2.40;;
215;SDS011;70668;48.81286795;9.14184224;2023-07-29T10:30:17;5.03;;;2.30;;
215;SDS011;70668;48.81286795;9.14184224;2023-07-29T10:32:48;3.53;;;2.13;;
215;SDS011;70668;48.81286795;9.14184224;2023-07-29T10:35:17;4.50;;;2.40;;
215;SDS011;70668;48.81286795;9.14184224;2023-07-29T10:37:46;3.80;;;2.40;;
215;SDS011;70668;48.81286795;9.14184224;2023-07-29T10:40:16;3.30;;;2.30;;
215;SDS011;70668;48.81286795;9.14184224;2023-07-29T10:42:59;5.40;;;2.40;;
215;SDS011;70668;48.81286795;9.14184224;2023-07-29T10:45:36;3.40;;;2.33;;
215;SDS011;70668;48.81286795;9.14184224;2023-07-29T10:48:09;3.90;;;2.40;;
215;SDS011;70668;48.81286795;9.14184224;2023-07-29T10:50:38;3.30;;;2.40;;
215;SDS011;70668;48.81286795;9.14184224;2023-07-29T10:53:07;4.43;;;2.73;;
215;SDS011;70668;48.81286795;9.14184224;2023-07-29T10:55:35;4.33;;;2.40;;
215;SDS011;70668;48.81286795;9.14184224;2023-07-29T10:58:05;4.33;;;2.47;;
215;SDS011;70668;48.81286795;9.14184224;2023-07-29T11:00:34;3.57;;;2.50;;
215;SDS011;70668;48.81286795;9.14184224;2023-07-29T11:03:04;4.60;;;2.47;;
215;SDS011;70668;48.81286795;9.14184224;2023-07-29T11:05:46;3.80;;;2.50;;
215;SDS011;70668;48.81286795;9.14184224;2023-07-29T11:08:18;6.50;;;2.80;;
215;SDS011;70668;48.81286795;9.14184224;2023-07-29T11:10:57;7.23;;;2.80;;
215;SDS011;70668;48.81286795;9.14184224;2023-07-29T11:13:30;3.70;;;2.50;;
215;SDS011;70668;48.81286795;9.14184224;2023-07-29T11:15:58;3.60;;;2.60;;
215;SDS011;70668;48.81286795;9.14184224;2023-07-29T11:18:27;4.40;;;2.63;;
215;SDS011;70668;48.81286795;9.14184224;2023-07-29T11:21:00;5.27;;;2.70;;
215;SDS011;70668;48.81286795;9.14184224;2023-07-29T11:23:30;3.70;;;2.50;;
215;SDS011;70668;48.81286795;9.14184224;2023-07-29T11:26:00;3.80;;;2.40;;
215;SDS011;70668;48.81286795;9.14184224;2023-07-29T11:28:29;4.60;;;2.20;;
215;SDS011;70668;48.81286795;9.14184224;2023-07-29T11:30:58;3.70;;;2.60;;
215;SDS011;70668;48.81286795;9.14184224;2023-07-29T11:33:26;4.10;;;2.60;;
215;SDS011;70668;48.81286795;9.14184224;2023-07-29T11:35:55;3.87;;;2.47;;
215;SDS011;70668;48.81286795;9.14184224;2023-07-29T11:38:26;7.27;;;2.70;;
215;SDS011;70668;48.81286795;9.14184224;2023-07-29T11:40:58;3.57;;;2.57;;
215;SDS011;70668;48.81286795;9.14184224;2023-07-29T11:43:28;5.57;;;2.40;;
215;SDS011;70668;48.81286795;9.14184224;2023-07-29T11:45:56;4.10;;;2.50;;
215;SDS011;70668;48.81286795;9.14184224;2023-07-29T11:48:31;4.30;;;2.60;;
215;SDS011;70668;48.81286795;9.14184224;2023-07-29T11:51:00;3.93;;;2.27;;
215;SDS011;70668;48.81286795;9.14184224;2023-07-29T11:53:31;5.30;;;2.73;;
215;SDS011;70668;48.81286795;9.14184224;2023-07-29T11:55:59;3.90;;;2.70;;
215;SDS011;70668;48.81286795;9.14184224;2023-07-29T11:58:28;4.37;;;2.60;;
215;SDS011;70668;48.81286795;9.14184224;2023-07-29T12:00:56;4.87;;;2.60;;
215;SDS011;70668;48.81286795;9.14184224;2023-07-29T12:03:25;4.40;;;2.70;;
215;SDS011;70668;48.81286795;9.14184224;2023-07-29T12:05:54;4.23;;;2.90;;
215;SDS011;70668;48.81286795;9.14184224;2023-07-29T12:08:22;4.47;;;2.80;;
215;SDS011;70668;48.81286795;9.14184224;2023-07-29T12:10:53;4.93;;;3.20;;
215;SDS011;70668;48.81286795;9.14184224;2023-07-29T12:13:23;4.20;;;2.63;;
215;SDS011;70668;48.81286795;9.14184224;2023-07-29T12:15:52;5.70;;;2.93;;
215;SDS011;70668;48.81286795;9.14184224;2023-07-29T12:18:23;4.63;;;2.60;;
215;SDS011;70668;48.81286795;9.14184224;2023-07-29T12:20:57;4.43;;;3.07;;
215;SDS011;70668;48.81286795;9.14184224;2023-07-29T12:23:26;4.97;;;2.73;;
215;SDS011;70668;48.81286795;9.14184224;2023-07-29T12:25:58;4.63;;;2.97;;
215;SDS011;70668;48.81286795;9.14184224;2023-07-29T12:28:27;3.90;;;2.70;;
215;SDS011;70668;48.81286795;9.14184224;2023-07-29T12:30:56;6.03;;;2.80;;
215;SDS011;70668;48.81286795;9.14184224;2023-07-29T12:33:31;5.43;;;3.10;;
215;SDS011;70668;48.81286795;9.14184224;2023-07-29T12:36:00;4.57;;;2.80;;
215;SDS011;70668;48.81286795;9.14184224;2023-07-29T12:38:29;4.67;;;3.17;;
215;SDS011;70668;48.81286795;9.14184224;2023-07-29T12:41:00;4.50;;;3.00;;
215;SDS011;70668;48.81286795;9.14184224;2023-07-29T12:43:28;5.10;;;3.10;;
215;SDS011;70668;48.81286795;9.14184224;2023-07-29T12:45:57;4.43;;;2.80;;
215;SDS011;70668;48.81286795;9.14184224;2023-07-29T12:48:25;5.07;;;2.80;;
215;SDS011;70668;48.81286795;9.14184224;2023-07-29T12:50:54;6.47;;;3.07;;
215;SDS011;70668;48.81286795;9.14184224;2023-07-29T12:53:22;4.03;;;2.70;;
215;SDS011;70668;48.81286795;9.14184224;2023-07-29T12:55:50;4.60;;;3.00;;
215;SDS011;70668;48.81286795;9.14184224;2023-07-29T12:58:21;6.30;;;3.00;;
215;SDS011;70668;48.81286795;9.14184224;2023-07-29T13:00:50;5.43;;;3.20;;
215;SDS011;70668;48.81286795;9.14184224;2023-07-29T13:03:19;4.67;;;2.90;;
215;SDS011;70668;48.81286795;9.14184224;2023-07-29T13:05:47;4.10;;;2.70;;
215;SDS011;70668;48.81286795;9.14184224;2023-07-29T13:08:16;6.07;;;3.00;;
215;SDS011;70668;48.81286795;9.14184224;2023-07-29T13:10:44;4.20;;;2.50;;
215;SDS011;70668;48.81286795;9.14184224;2023-07-29T13:13:13;3.73;;;2.67;;
215;SDS011;70668;48.81286795;9.14184224;2023-07-29T13:15:44;5.50;;;3.17;;
215;SDS011;70668;48.81286795;9.14184224;2023-07-29T13:18:12;4.50;;;2.90;;
215;SDS011;70668;48.81286795;9.14184224;2023-07-29T13:20:40;9.20;;;3.00;;